Time;durP1;ratioP1;P1;durP2;ratioP2;P2;SDS_P1;SDS_P2;PMS_P1;PMS_P2;Temp;Humidity;BMP_temperature;BMP_pressure;BME280_temperature;BME280_humidity;BME280_pressure;Samples;Min_cycle;Max_cycle;Signal;HPM_P1;HPM_P2
2023/01/13 00:01:23;;;;;;;1.90;1.70;;;11.20;81.30;;;;;;5055490;28;20181;-90
2023/01/13 00:03:49;;;;;;;2.33;1.60;;;11.20;82.10;;;;;;5055692;28;20245;-89
2023/01/13 00:06:18;;;;;;;2.97;1.70;;;11.20;81.60;;;;;;5056074;28;20255;-90
2023/01/13 00:08:48;;;;;;;2.57;1.70;;;11.10;83.20;;;;;;5038049;28;20223;-90
2023/01/13 00:11:13;;;;;;;2.73;1.70;;;11.20;83.30;;;;;;5055701;28;20193;-90
2023/01/13 00:13:39;;;;;;;1.80;1.70;;;10.90;85.20;;;;;;5055876;28;20234;-90
2023/01/13 00:16:07;;;;;;;2.10;1.90;;;10.90;85.10;;;;;;5055348;28;20232;-90
2023/01/13 00:18:35;;;;;;;1.83;1.70;;;11.00;85.20;;;;;;5055794;28;20181;-90
2023/01/13 00:21:18;;;;;;;1.83;1.50;;;10.90;85.10;;;;;;5055390;28;20181;-89
2023/01/13 00:23:44;;;;;;;1.60;1.50;;;10.90;84.00;;;;;;5040463;28;20798;-90
2023/01/13 00:26:17;;;;;;;2.27;1.70;;;11.10;83.30;;;;;;5046898;28;20260;-91
2023/01/13 00:28:42;;;;;;;2.27;1.70;;;11.00;83.40;;;;;;5053696;28;20200;-90
2023/01/13 00:31:11;;;;;;;1.77;1.67;;;11.10;82.20;;;;;;5054409;28;20199;-90
2023/01/13 00:33:36;;;;;;;1.87;1.57;;;11.10;83.20;;;;;;5054517;28;20189;-90
2023/01/13 00:36:04;;;;;;;3.30;1.80;;;11.00;83.90;;;;;;5055722;28;20561;-90
2023/01/13 00:38:31;;;;;;;3.37;1.90;;;11.10;83.50;;;;;;5064288;28;20165;-89
2023/01/13 00:41:04;;;;;;;3.00;1.70;;;11.10;83.90;;;;;;5078072;28;20172;-90
2023/01/13 00:43:31;;;;;;;1.93;1.70;;;11.00;87.10;;;;;;5078535;28;20160;-90
2023/01/13 00:45:57;;;;;;;2.00;1.60;;;10.80;90.40;;;;;;5070702;28;20193;-89
2023/01/13 00:48:24;;;;;;;3.03;1.57;;;10.70;91.60;;;;;;5040995;28;20208;-87
2023/01/13 00:50:55;;;;;;;2.70;1.70;;;10.80;92.20;;;;;;5039380;28;20188;-89
2023/01/13 00:53:21;;;;;;;2.83;1.80;;;10.60;93.00;;;;;;5039200;28;20204;-89
2023/01/13 00:55:47;;;;;;;2.07;1.77;;;10.60;93.30;;;;;;5040036;28;20201;-89
2023/01/13 00:58:12;;;;;;;3.33;1.63;;;10.60;92.20;;;;;;5039919;28;20176;-90
2023/01/13 01:00:38;;;;;;;1.83;1.57;;;10.50;94.60;;;;;;5058685;28;20188;-90
2023/01/13 01:03:07;;;;;;;2.50;1.60;;;10.60;91.10;;;;;;5061446;28;20184;-89
2023/01/13 01:05:33;;;;;;;1.80;1.53;;;10.60;93.00;;;;;;5059052;28;20262;-89
2023/01/13 01:07:59;;;;;;;1.47;1.43;;;10.60;91.40;;;;;;5058336;28;20180;-90
2023/01/13 01:10:24;;;;;;;2.27;2.00;;;10.50;93.60;;;;;;5062621;28;20180;-89
2023/01/13 01:12:50;;;;;;;1.70;1.60;;;10.50;92.60;;;;;;5062126;28;20712;-89
2023/01/13 01:15:16;;;;;;;2.40;1.90;;;10.70;92.50;;;;;;5060585;28;20177;-90
2023/01/13 01:17:42;;;;;;;2.43;1.63;;;10.60;94.00;;;;;;5059270;28;20212;-89
2023/01/13 01:20:08;;;;;;;1.60;1.50;;;10.40;96.00;;;;;;5039120;28;20657;-90
2023/01/13 01:22:34;;;;;;;2.50;2.03;;;10.30;97.70;;;;;;5043004;28;20186;-90
2023/01/13 01:24:59;;;;;;;2.37;1.63;;;10.20;99.40;;;;;;5057606;28;20188;-89
2023/01/13 01:27:25;;;;;;;2.30;1.80;;;10.20;99.90;;;;;;5057243;28;20584;-91
2023/01/13 01:29:51;;;;;;;2.03;1.87;;;10.20;99.90;;;;;;5057555;28;20212;-90
2023/01/13 01:32:16;;;;;;;3.63;1.83;;;10.00;99.90;;;;;;5057524;28;20172;-89
2023/01/13 01:34:42;;;;;;;1.60;1.50;;;10.10;99.90;;;;;;5057385;28;20176;-91
2023/01/13 01:37:07;;;;;;;2.67;1.80;;;10.00;99.90;;;;;;5058623;28;20812;-91
2023/01/13 01:39:33;;;;;;;1.40;1.40;;;10.00;99.90;;;;;;5056872;28;20184;-90
2023/01/13 01:45:00;;;;;;;2.07;1.87;;;10.10;99.90;;;;;;5038996;28;20176;-90
2023/01/13 01:47:27;;;;;;;2.50;1.40;;;10.20;99.90;;;;;;5038430;28;20260;-90
2023/01/13 01:49:55;;;;;;;2.27;1.53;;;10.20;99.90;;;;;;5052760;28;20226;-90
2023/01/13 01:52:32;;;;;;;2.37;1.50;;;10.30;99.10;;;;;;5039984;28;20711;-90
2023/01/13 01:55:14;;;;;;;1.97;1.70;;;10.30;98.50;;;;;;5058350;28;20203;-88
2023/01/13 01:57:43;;;;;;;1.80;1.70;;;10.40;97.20;;;;;;5058541;28;20176;-89
2023/01/13 02:00:09;;;;;;;2.27;1.70;;;10.50;97.90;;;;;;5058305;28;20192;-89
2023/01/13 02:02:36;;;;;;;4.07;1.70;;;10.40;97.70;;;;;;5058600;28;20891;-89
2023/01/13 02:05:02;;;;;;;1.60;1.50;;;10.40;97.70;;;;;;5058296;28;20196;-89
2023/01/13 02:07:30;;;;;;;1.63;1.53;;;10.50;96.90;;;;;;5057746;28;20227;-89
2023/01/13 02:10:00;;;;;;;3.07;1.70;;;10.40;97.70;;;;;;5058014;28;20262;-90
2023/01/13 02:12:31;;;;;;;2.93;1.90;;;10.30;99.90;;;;;;5057474;28;20179;-88
2023/01/13 02:15:04;;;;;;;3.27;1.70;;;10.30;99.70;;;;;;5019524;28;20173;-89
2023/01/13 02:17:47;;;;;;;4.03;1.90;;;10.20;99.90;;;;;;5037189;28;20705;-89
2023/01/13 02:20:32;;;;;;;2.73;1.60;;;10.10;99.90;;;;;;5047116;28;20187;-89
2023/01/13 02:26:23;;;;;;;2.57;1.73;;;9.90;99.90;;;;;;5056509;28;20707;-89
2023/01/13 02:31:44;;;;;;;2.07;1.67;;;9.80;99.90;;;;;;5056555;28;20171;-89
2023/01/13 02:34:30;;;;;;;2.67;1.80;;;9.90;99.90;;;;;;5057778;28;20165;-89
2023/01/13 02:36:58;;;;;;;2.73;1.70;;;9.90;99.90;;;;;;5042943;28;20224;-89
2023/01/13 02:39:33;;;;;;;3.73;1.77;;;9.90;99.90;;;;;;5048633;28;20535;-90
2023/01/13 02:45:05;;;;;;;3.23;1.60;;;10.10;99.40;;;;;;5057281;28;20191;-89
2023/01/13 02:47:35;;;;;;;2.70;1.80;;;10.30;97.50;;;;;;5056540;28;20200;-90
2023/01/13 02:50:16;;;;;;;1.93;1.77;;;10.30;97.00;;;;;;5056949;28;20211;-89
2023/01/13 02:52:57;;;;;;;1.70;1.60;;;10.30;95.60;;;;;;5057046;28;20184;-89
2023/01/13 02:55:29;;;;;;;2.47;1.77;;;10.30;95.50;;;;;;5057359;28;20238;-90
2023/01/13 02:57:58;;;;;;;2.43;2.03;;;10.40;94.80;;;;;;5056857;28;20191;-90
2023/01/13 03:00:25;;;;;;;2.37;1.70;;;10.40;95.00;;;;;;5057465;28;20270;-89
2023/01/13 03:02:51;;;;;;;2.47;1.83;;;10.40;94.20;;;;;;5059113;28;20238;-90
2023/01/13 03:05:17;;;;;;;1.97;1.70;;;10.40;93.50;;;;;;5057981;28;20176;-91
2023/01/13 03:08:07;;;;;;;2.97;1.60;;;10.50;93.00;;;;;;5057770;28;20196;-91
2023/01/13 03:10:55;;;;;;;5.03;1.80;;;10.50;93.00;;;;;;5057400;28;20199;-91
2023/01/13 03:13:40;;;;;;;1.60;1.50;;;10.50;92.10;;;;;;5057386;28;20173;-91
2023/01/13 03:16:24;;;;;;;3.30;1.80;;;10.70;91.30;;;;;;5055714;28;20196;-90
2023/01/13 03:19:23;;;;;;;1.40;1.30;;;10.60;92.30;;;;;;5056879;28;20195;-89
2023/01/13 03:21:55;;;;;;;2.17;1.73;;;10.60;90.40;;;;;;5055620;28;20718;-90
2023/01/13 03:24:35;;;;;;;3.23;1.67;;;10.70;91.60;;;;;;5036379;28;20185;-90
2023/01/13 03:27:11;;;;;;;3.17;1.70;;;10.70;91.00;;;;;;5036264;28;20232;-90
2023/01/13 03:29:55;;;;;;;1.90;1.80;;;10.70;89.60;;;;;;5054836;28;20286;-90
2023/01/13 03:32:32;;;;;;;2.57;1.60;;;10.70;90.30;;;;;;5058373;28;20164;-90
2023/01/13 03:35:09;;;;;;;2.93;1.40;;;10.80;89.70;;;;;;5047947;28;20213;-90
2023/01/13 03:37:39;;;;;;;1.73;1.43;;;10.80;90.60;;;;;;5056304;28;20200;-90
2023/01/13 03:40:21;;;;;;;2.47;1.60;;;10.70;91.10;;;;;;5056228;28;20189;-90
2023/01/13 03:45:40;;;;;;;3.30;1.67;;;10.70;90.60;;;;;;5056174;28;20313;-90
2023/01/13 03:48:15;;;;;;;2.03;1.43;;;10.80;90.00;;;;;;5056140;28;20183;-89
2023/01/13 03:50:49;;;;;;;1.80;1.70;;;10.80;89.70;;;;;;5055981;28;20271;-90
2023/01/13 03:53:36;;;;;;;2.97;1.60;;;10.80;89.90;;;;;;5055984;28;20160;-90
2023/01/13 03:56:11;;;;;;;1.97;1.50;;;10.80;90.10;;;;;;5055765;28;20200;-90
2023/01/13 03:58:41;;;;;;;2.87;1.57;;;10.70;90.50;;;;;;5056205;28;20380;-90
2023/01/13 04:01:26;;;;;;;3.40;1.60;;;10.80;90.40;;;;;;5037732;28;20185;-90
2023/01/13 04:03:51;;;;;;;2.47;1.77;;;10.80;90.80;;;;;;5056231;28;20183;-90
2023/01/13 04:06:52;;;;;;;1.53;1.43;;;10.80;90.60;;;;;;5056089;28;20688;-91
2023/01/13 04:09:37;;;;;;;1.87;1.30;;;10.70;91.30;;;;;;5055656;28;20203;-90
2023/01/13 04:12:08;;;;;;;2.23;1.70;;;10.80;90.20;;;;;;5055348;28;20178;-89
2023/01/13 04:14:35;;;;;;;1.33;1.30;;;10.80;89.80;;;;;;5058949;28;20249;-89
2023/01/13 04:17:00;;;;;;;2.00;1.37;;;10.80;91.40;;;;;;5062748;28;20198;-90
2023/01/13 04:19:26;;;;;;;1.83;1.40;;;10.70;91.10;;;;;;5062433;28;20212;-90
2023/01/13 04:21:52;;;;;;;1.10;1.10;;;10.70;91.10;;;;;;5063564;28;20200;-91
2023/01/13 04:24:17;;;;;;;2.00;1.40;;;10.70;91.00;;;;;;5062321;28;20211;-91
2023/01/13 04:26:43;;;;;;;1.23;1.23;;;10.60;91.30;;;;;;5063526;28;20200;-91
2023/01/13 04:29:08;;;;;;;1.30;1.20;;;10.70;91.00;;;;;;5063078;28;20551;-91
2023/01/13 04:31:34;;;;;;;2.53;1.40;;;10.70;90.90;;;;;;5052065;28;20177;-91
2023/01/13 04:34:00;;;;;;;1.30;1.20;;;10.70;91.40;;;;;;5052625;28;20242;-91
2023/01/13 04:36:28;;;;;;;1.27;1.27;;;10.70;91.30;;;;;;5062150;28;20200;-90
2023/01/13 04:38:54;;;;;;;1.70;1.30;;;10.70;91.60;;;;;;5060866;28;20186;-89
2023/01/13 04:41:20;;;;;;;1.73;1.20;;;10.70;91.00;;;;;;5063819;28;20196;-89
2023/01/13 04:43:46;;;;;;;1.30;1.20;;;10.70;90.30;;;;;;5042493;28;20302;-91
2023/01/13 04:46:11;;;;;;;1.53;1.33;;;10.70;90.00;;;;;;5040330;28;20698;-89
2023/01/13 04:48:37;;;;;;;1.43;1.30;;;10.80;91.00;;;;;;5040688;28;20209;-89
2023/01/13 04:51:02;;;;;;;1.27;1.20;;;10.70;91.30;;;;;;5057446;28;20681;-89
2023/01/13 04:53:28;;;;;;;1.60;1.50;;;10.70;91.40;;;;;;5060876;28;20810;-89
2023/01/13 04:55:54;;;;;;;1.57;1.40;;;10.70;91.30;;;;;;5060156;28;20716;-91
2023/01/13 04:58:20;;;;;;;1.30;1.20;;;10.70;91.40;;;;;;5061397;28;20177;-89
2023/01/13 05:00:46;;;;;;;1.53;1.43;;;10.70;91.90;;;;;;5063077;28;20183;-89
2023/01/13 05:03:11;;;;;;;1.60;1.50;;;10.60;91.80;;;;;;5062745;28;20180;-89
2023/01/13 05:05:37;;;;;;;2.17;1.40;;;10.70;92.00;;;;;;5062600;28;20318;-89
2023/01/13 05:08:03;;;;;;;1.97;1.47;;;10.70;91.80;;;;;;5061684;28;20553;-88
2023/01/13 05:10:29;;;;;;;1.30;1.30;;;10.60;92.00;;;;;;5060951;28;20646;-89
2023/01/13 05:18:26;;;;;;;3.83;1.57;;;10.70;91.80;;;;;;5053036;28;20191;-89
2023/01/13 05:20:52;;;;;;;1.03;1.03;;;10.60;92.60;;;;;;5060519;28;20315;-88
2023/01/13 05:26:03;;;;;;;1.20;1.20;;;10.60;92.40;;;;;;5057224;28;20239;-90
2023/01/13 05:28:32;;;;;;;1.40;1.37;;;10.60;93.20;;;;;;5050033;28;20291;-89
2023/01/13 05:30:58;;;;;;;1.33;1.23;;;10.60;93.30;;;;;;5060802;28;20269;-89
2023/01/13 05:33:24;;;;;;;3.20;1.23;;;10.60;93.50;;;;;;5060714;28;20177;-89
2023/01/13 05:35:50;;;;;;;1.10;1.10;;;10.50;93.60;;;;;;5058717;28;20198;-89
2023/01/13 05:38:17;;;;;;;1.53;1.43;;;10.60;93.60;;;;;;5060505;28;20188;-89
2023/01/13 05:43:28;;;;;;;1.23;1.20;;;10.60;94.40;;;;;;5060632;28;20184;-89
2023/01/13 05:46:03;;;;;;;1.77;1.40;;;10.50;94.30;;;;;;5042687;28;20200;-89
2023/01/13 05:48:35;;;;;;;1.87;1.30;;;10.50;94.30;;;;;;5060687;28;20199;-89
2023/01/13 05:51:02;;;;;;;1.40;1.30;;;10.50;93.80;;;;;;5060573;28;20251;-89
2023/01/13 05:53:29;;;;;;;2.37;1.27;;;10.60;93.50;;;;;;5060408;28;20179;-89
2023/01/13 05:55:54;;;;;;;1.70;1.60;;;10.50;93.60;;;;;;5060669;28;20184;-90
2023/01/13 05:58:22;;;;;;;1.43;1.40;;;10.50;94.00;;;;;;5042970;28;20242;-90
2023/01/13 06:00:48;;;;;;;1.40;1.30;;;10.50;93.10;;;;;;5061563;28;20181;-89
2023/01/13 06:03:14;;;;;;;1.30;1.30;;;10.60;92.80;;;;;;5069331;28;20196;-89
2023/01/13 06:05:41;;;;;;;2.83;1.43;;;10.50;93.50;;;;;;5077438;28;20204;-89
2023/01/13 06:08:07;;;;;;;2.10;1.50;;;10.60;92.80;;;;;;5077494;28;20173;-89
2023/01/13 06:10:33;;;;;;;2.10;1.30;;;10.50;93.90;;;;;;5076459;28;20250;-89
2023/01/13 06:12:59;;;;;;;1.73;1.40;;;10.60;92.60;;;;;;5063833;28;20188;-89
2023/01/13 06:15:25;;;;;;;1.30;1.20;;;10.60;92.70;;;;;;5060300;28;20191;-88
2023/01/13 06:17:51;;;;;;;1.67;1.43;;;10.60;94.20;;;;;;5041419;28;20181;-89
2023/01/13 06:20:17;;;;;;;1.53;1.43;;;10.50;94.00;;;;;;5059776;28;20732;-89
2023/01/13 06:22:49;;;;;;;1.30;1.30;;;10.50;95.10;;;;;;5060515;28;20191;-89
2023/01/13 06:25:33;;;;;;;2.83;1.57;;;10.40;97.10;;;;;;5043698;28;20169;-89
2023/01/13 06:27:59;;;;;;;1.50;1.40;;;10.30;97.00;;;;;;5040085;28;20185;-88
2023/01/13 06:30:28;;;;;;;2.37;1.23;;;10.40;96.80;;;;;;5059731;28;20544;-88
2023/01/13 06:32:59;;;;;;;1.20;1.20;;;10.40;96.30;;;;;;5059938;28;20572;-89
2023/01/13 06:35:33;;;;;;;1.60;1.50;;;10.40;96.20;;;;;;5059362;28;20172;-89
2023/01/13 06:38:03;;;;;;;1.10;1.10;;;10.40;96.70;;;;;;5059806;28;20184;-88
2023/01/13 06:40:29;;;;;;;1.53;1.37;;;10.30;96.80;;;;;;5060750;28;20183;-89
2023/01/13 06:43:15;;;;;;;1.77;1.20;;;10.40;96.40;;;;;;5059596;28;20184;-89
2023/01/13 06:45:46;;;;;;;1.37;1.30;;;10.40;96.10;;;;;;5061783;28;20208;-90
2023/01/13 06:48:13;;;;;;;1.40;1.30;;;10.30;96.90;;;;;;5064493;28;20172;-88
2023/01/13 06:50:41;;;;;;;1.43;1.23;;;10.40;96.90;;;;;;5063594;28;20195;-89
2023/01/13 06:53:07;;;;;;;1.20;1.20;;;10.30;96.90;;;;;;5050348;28;20183;-89
2023/01/13 06:55:32;;;;;;;1.70;1.40;;;10.30;96.80;;;;;;5064376;28;20200;-89
2023/01/13 06:57:58;;;;;;;1.50;1.40;;;10.40;96.70;;;;;;5044261;28;20246;-89
2023/01/13 07:00:25;;;;;;;1.23;1.23;;;10.40;97.00;;;;;;5063495;28;20177;-89
2023/01/13 07:02:51;;;;;;;1.20;1.20;;;10.40;96.30;;;;;;5061862;28;20232;-88
2023/01/13 07:05:19;;;;;;;1.20;1.20;;;10.40;95.70;;;;;;5062461;28;20183;-89
2023/01/13 07:07:45;;;;;;;1.43;1.20;;;10.40;96.00;;;;;;5059458;28;20207;-89
2023/01/13 07:10:20;;;;;;;1.40;1.30;;;10.50;96.00;;;;;;5058434;28;20717;-88
2023/01/13 07:15:31;;;;;;;2.00;1.33;;;10.50;96.00;;;;;;5057306;28;20767;-88
2023/01/13 07:17:58;;;;;;;2.73;1.27;;;10.50;96.20;;;;;;5058574;28;20665;-89
2023/01/13 07:20:24;;;;;;;1.17;1.13;;;10.40;96.00;;;;;;5041493;28;20176;-87
2023/01/13 07:22:53;;;;;;;1.40;1.30;;;10.50;96.80;;;;;;5046126;28;20194;-88
2023/01/13 07:25:19;;;;;;;1.73;1.40;;;10.40;97.90;;;;;;5034857;28;20603;-87
2023/01/13 07:27:45;;;;;;;1.37;1.23;;;10.30;99.90;;;;;;5052636;28;20184;-90
2023/01/13 07:30:11;;;;;;;1.33;1.30;;;10.10;99.90;;;;;;5058082;28;20283;-89
2023/01/13 07:32:36;;;;;;;1.60;1.40;;;9.90;99.90;;;;;;5056336;28;20195;-89
2023/01/13 07:35:05;;;;;;;2.63;1.47;;;9.80;99.90;;;;;;5054508;28;20661;-90
2023/01/13 07:37:33;;;;;;;2.27;1.50;;;9.70;99.90;;;;;;5055874;28;20230;-88
2023/01/13 07:39:58;;;;;;;1.90;1.57;;;9.70;99.90;;;;;;5039259;28;20180;-89
2023/01/13 07:45:09;;;;;;;2.60;1.33;;;9.60;99.90;;;;;;5056388;28;20248;-89
2023/01/13 07:47:34;;;;;;;1.50;1.40;;;9.60;99.90;;;;;;5057212;28;20196;-92
2023/01/13 07:50:00;;;;;;;2.80;1.53;;;9.40;99.90;;;;;;5056601;28;20246;-91
2023/01/13 07:52:25;;;;;;;1.63;1.30;;;9.30;99.90;;;;;;5057017;28;20179;-89
2023/01/13 07:54:51;;;;;;;3.80;1.90;;;9.30;99.90;;;;;;5041631;28;20247;-89
2023/01/13 07:57:17;;;;;;;1.50;1.40;;;9.20;99.90;;;;;;5042669;28;20239;-89
2023/01/13 07:59:42;;;;;;;1.40;1.40;;;9.20;99.90;;;;;;5063334;28;20180;-88
2023/01/13 08:02:12;;;;;;;1.60;1.50;;;9.10;99.90;;;;;;5062145;28;20303;-88
2023/01/13 08:04:38;;;;;;;1.30;1.30;;;9.00;99.90;;;;;;5059711;28;20240;-89
2023/01/13 08:07:05;;;;;;;5.03;1.30;;;8.90;99.90;;;;;;5060747;28;20192;-89
2023/01/13 08:09:31;;;;;;;1.40;1.30;;;8.90;99.90;;;;;;5061999;28;20199;-89
2023/01/13 08:14:41;;;;;;;2.10;1.30;;;8.80;99.90;;;;;;5041365;28;20183;-89
2023/01/13 08:17:08;;;;;;;1.40;1.30;;;8.80;99.90;;;;;;5057481;28;20601;-89
2023/01/13 08:19:34;;;;;;;2.60;1.27;;;8.90;99.90;;;;;;5049244;28;20210;-89
2023/01/13 08:21:59;;;;;;;2.10;1.40;;;8.90;99.90;;;;;;5041323;28;20177;-90
2023/01/13 08:24:25;;;;;;;1.33;1.20;;;8.90;99.90;;;;;;5061145;28;20278;-89
2023/01/13 08:26:51;;;;;;;1.13;1.13;;;8.80;99.90;;;;;;5061014;28;20204;-89
2023/01/13 08:29:17;;;;;;;1.13;1.13;;;8.80;99.90;;;;;;5060923;28;20212;-90
2023/01/13 08:31:43;;;;;;;2.93;1.50;;;8.80;99.90;;;;;;5060695;28;20819;-90
2023/01/13 08:34:09;;;;;;;1.70;1.60;;;8.80;99.90;;;;;;5062467;28;20180;-90
2023/01/13 08:36:34;;;;;;;4.07;1.80;;;8.80;99.90;;;;;;5061261;28;20226;-89
2023/01/13 08:39:00;;;;;;;3.27;1.50;;;8.80;99.90;;;;;;5058291;28;20189;-89
2023/01/13 08:44:10;;;;;;;1.50;1.40;;;8.90;99.90;;;;;;5056280;28;20182;-88
2023/01/13 08:46:36;;;;;;;1.60;1.47;;;8.80;99.90;;;;;;5054270;28;20232;-89
2023/01/13 08:49:02;;;;;;;2.77;1.67;;;8.90;99.90;;;;;;5035362;28;20204;-89
2023/01/13 08:51:28;;;;;;;2.40;1.90;;;8.80;99.90;;;;;;5055356;28;20186;-89
2023/01/13 08:53:53;;;;;;;2.60;1.70;;;8.80;99.90;;;;;;5054621;28;20574;-89
2023/01/13 08:56:19;;;;;;;1.97;1.60;;;8.80;99.90;;;;;;5054865;28;20204;-89
2023/01/13 08:58:45;;;;;;;2.00;1.83;;;8.80;99.90;;;;;;5055023;28;20168;-88
2023/01/13 09:01:14;;;;;;;2.70;1.50;;;8.80;99.90;;;;;;5037211;28;20638;-88
2023/01/13 09:03:40;;;;;;;2.63;1.87;;;8.70;99.90;;;;;;5058716;28;20295;-88
2023/01/13 09:06:06;;;;;;;1.83;1.50;;;8.70;99.90;;;;;;5057759;28;20208;-89
2023/01/13 09:08:32;;;;;;;3.00;1.80;;;8.70;99.90;;;;;;5058878;28;20291;-88
2023/01/13 09:10:57;;;;;;;2.33;1.80;;;8.70;99.90;;;;;;5050590;28;20188;-88
2023/01/13 09:13:23;;;;;;;2.67;2.00;;;8.70;99.90;;;;;;5047681;28;20173;-88
2023/01/13 09:15:50;;;;;;;2.57;1.90;;;8.70;99.90;;;;;;5041880;28;20695;-88
2023/01/13 09:18:16;;;;;;;3.40;1.70;;;8.70;99.90;;;;;;5058323;28;20267;-89
2023/01/13 09:20:43;;;;;;;2.90;1.80;;;8.70;99.90;;;;;;5052853;28;20211;-89
2023/01/13 09:23:09;;;;;;;3.30;2.10;;;8.80;99.90;;;;;;5038980;28;20193;-89
2023/01/13 09:25:35;;;;;;;2.87;2.07;;;8.70;99.90;;;;;;5038405;28;20197;-89
2023/01/13 09:28:03;;;;;;;3.00;1.90;;;8.70;99.90;;;;;;5023936;28;20215;-89
2023/01/13 09:30:29;;;;;;;2.10;1.90;;;8.80;99.90;;;;;;5036637;28;20200;-90
2023/01/13 09:34:58;;;;;;;3.70;1.97;;;8.80;99.90;;;;;;5038648;28;20173;-90
2023/01/13 09:35:42;;;;;;;2.80;2.10;;;8.90;99.90;;;;;;5048658;28;20619;-89
2023/01/13 09:38:08;;;;;;;3.43;1.90;;;8.90;99.90;;;;;;5065767;28;20187;-92
2023/01/13 09:40:38;;;;;;;2.10;1.90;;;9.10;99.90;;;;;;5064865;28;20180;-90
2023/01/13 09:46:42;;;;;;;4.83;1.70;;;9.10;99.90;;;;;;5068686;28;20220;-90
2023/01/13 09:49:02;;;;;;;2.63;1.87;;;9.20;99.90;;;;;;5063798;28;20234;-90
2023/01/13 09:51:35;;;;;;;4.03;2.30;;;9.20;99.90;;;;;;5058101;28;20235;-89
2023/01/13 09:54:21;;;;;;;5.27;2.13;;;9.30;99.90;;;;;;5058795;28;20169;-90
2023/01/13 09:56:46;;;;;;;5.73;2.07;;;9.30;99.90;;;;;;5057152;28;20280;-90
2023/01/13 09:59:12;;;;;;;4.07;2.03;;;9.30;99.90;;;;;;5056562;28;20594;-89
2023/01/13 10:01:46;;;;;;;3.43;1.87;;;9.30;99.90;;;;;;5056706;28;20176;-89
2023/01/13 10:04:14;;;;;;;5.03;1.77;;;9.30;99.90;;;;;;5056385;28;20182;-90
2023/01/13 10:06:46;;;;;;;4.07;2.20;;;9.30;99.90;;;;;;5056756;28;20223;-91
2023/01/13 10:09:31;;;;;;;2.30;1.80;;;9.40;99.90;;;;;;5056384;28;20686;-90
2023/01/13 10:14:53;;;;;;;3.13;2.13;;;9.40;99.90;;;;;;5058817;28;20448;-91
2023/01/13 10:17:38;;;;;;;2.13;1.83;;;9.30;99.90;;;;;;5057649;28;20267;-90
2023/01/13 10:20:23;;;;;;;2.33;1.80;;;9.30;99.90;;;;;;5058794;28;20183;-89
2023/01/13 10:22:57;;;;;;;2.10;1.70;;;9.30;99.90;;;;;;5051368;28;20693;-90
2023/01/13 10:25:56;;;;;;;4.07;1.93;;;9.40;99.90;;;;;;5047018;28;20235;-89
2023/01/13 10:28:23;;;;;;;3.50;1.97;;;9.40;99.90;;;;;;5056255;28;20196;-90
2023/01/13 10:30:49;;;;;;;2.13;1.80;;;9.30;99.90;;;;;;5058603;28;20579;-89
2023/01/13 10:33:19;;;;;;;3.17;1.90;;;9.40;99.90;;;;;;5058326;28;20211;-90
2023/01/13 10:35:56;;;;;;;3.40;2.00;;;9.30;99.90;;;;;;5058091;28;20196;-89
2023/01/13 10:38:33;;;;;;;2.90;1.90;;;9.30;99.90;;;;;;5057787;28;20179;-89
2023/01/13 10:41:04;;;;;;;4.37;2.40;;;9.30;99.90;;;;;;5056478;28;20168;-90
2023/01/13 10:43:31;;;;;;;4.07;1.97;;;9.40;99.90;;;;;;5057163;28;20207;-90
2023/01/13 10:46:11;;;;;;;7.30;2.27;;;9.50;99.90;;;;;;5056909;28;20205;-90
2023/01/13 10:48:43;;;;;;;4.03;2.40;;;9.50;99.90;;;;;;5039222;28;20224;-90
2023/01/13 10:51:18;;;;;;;6.50;2.47;;;9.50;99.90;;;;;;5054148;28;20717;-89
2023/01/13 10:53:48;;;;;;;4.97;2.13;;;9.60;99.90;;;;;;5054121;28;20208;-89
2023/01/13 10:56:17;;;;;;;4.40;2.17;;;9.60;99.90;;;;;;5056836;28;20207;-89
2023/01/13 10:58:43;;;;;;;5.40;2.30;;;9.70;99.90;;;;;;5057296;28;20326;-90
2023/01/13 11:01:19;;;;;;;2.97;2.00;;;9.90;99.90;;;;;;5058589;28;20566;-91
2023/01/13 11:03:46;;;;;;;3.13;2.10;;;9.90;99.90;;;;;;5059136;28;20257;-90
2023/01/13 11:06:22;;;;;;;5.33;2.00;;;10.00;99.90;;;;;;5024289;28;20205;-89
2023/01/13 11:08:51;;;;;;;6.93;2.13;;;10.10;99.90;;;;;;5037757;28;20807;-91
2023/01/13 11:11:42;;;;;;;4.93;2.43;;;10.30;99.90;;;;;;5022898;28;20247;-89
2023/01/13 11:14:40;;;;;;;4.63;2.03;;;10.20;99.90;;;;;;5052886;28;20176;-90
2023/01/13 11:17:34;;;;;;;3.33;1.80;;;10.10;99.90;;;;;;5039018;28;20195;-89
2023/01/13 11:20:06;;;;;;;4.90;2.00;;;10.00;99.30;;;;;;5056818;28;20193;-89
2023/01/13 11:22:43;;;;;;;3.93;2.30;;;10.00;99.90;;;;;;5037620;28;20206;-90
2023/01/13 11:25:15;;;;;;;3.70;2.07;;;9.90;99.90;;;;;;5019764;28;20176;-87
2023/01/13 11:27:56;;;;;;;2.83;2.10;;;9.90;99.90;;;;;;5039816;28;20169;-88
2023/01/13 11:30:31;;;;;;;6.03;2.30;;;9.90;99.90;;;;;;5053785;28;20247;-91
2023/01/13 11:33:14;;;;;;;4.37;2.30;;;9.80;99.90;;;;;;5067570;28;20152;-90
2023/01/13 11:35:49;;;;;;;5.87;2.40;;;9.70;99.90;;;;;;5073574;28;20748;-89
2023/01/13 11:38:54;;;;;;;5.50;2.70;;;9.60;99.90;;;;;;5064678;28;20172;-89
2023/01/13 11:41:34;;;;;;;4.07;2.80;;;9.50;99.90;;;;;;5054452;28;20216;-88
2023/01/13 11:44:24;;;;;;;5.03;2.50;;;9.50;99.90;;;;;;5054991;28;20180;-89
2023/01/13 11:46:52;;;;;;;5.60;2.60;;;9.40;99.90;;;;;;5059090;28;20196;-89
2023/01/13 11:49:29;;;;;;;4.57;2.50;;;9.10;99.90;;;;;;5058195;28;20204;-90
2023/01/13 11:52:22;;;;;;;3.77;2.20;;;8.90;99.90;;;;;;5057218;28;20172;-89
2023/01/13 11:55:09;;;;;;;3.63;2.10;;;8.80;99.90;;;;;;5056534;28;20702;-89
2023/01/13 11:57:50;;;;;;;6.03;2.00;;;8.70;99.90;;;;;;5060303;28;20188;-90
2023/01/13 12:00:19;;;;;;;9.60;1.93;;;8.60;99.90;;;;;;5044445;28;20172;-89
2023/01/13 12:03:22;;;;;;;6.70;1.97;;;8.60;99.90;;;;;;5038042;28;20191;-88
2023/01/13 12:05:58;;;;;;;7.87;1.87;;;8.60;92.70;;;;;;5052308;28;20200;-89
2023/01/13 12:08:56;;;;;;;4.83;2.07;;;8.80;88.00;;;;;;5058616;28;20196;-90
2023/01/13 12:11:30;;;;;;;6.73;2.20;;;9.30;91.30;;;;;;5057249;28;20181;-89
2023/01/13 12:13:55;;;;;;;4.57;2.33;;;9.40;92.20;;;;;;5057087;28;20184;-89
2023/01/13 12:16:23;;;;;;;3.73;2.20;;;9.70;90.20;;;;;;5058236;28;20196;-89
2023/01/13 12:18:55;;;;;;;8.07;2.10;;;9.90;90.70;;;;;;5058182;28;20183;-90
2023/01/13 12:21:24;;;;;;;5.83;2.43;;;10.10;90.60;;;;;;5028395;28;20676;-89
2023/01/13 12:24:40;;;;;;;6.03;2.30;;;10.20;88.40;;;;;;5053573;28;20192;-89
2023/01/13 12:27:15;;;;;;;8.67;2.30;;;10.40;88.90;;;;;;4954362;29;20342;-88
2023/01/13 12:29:42;;;;;;;4.40;2.40;;;10.30;89.00;;;;;;5040078;28;20250;-88
2023/01/13 12:32:15;;;;;;;4.03;2.50;;;10.20;89.60;;;;;;5055191;28;20260;-88
2023/01/13 12:34:59;;;;;;;6.90;2.60;;;10.10;91.50;;;;;;5056033;28;20179;-88
2023/01/13 12:37:27;;;;;;;5.97;2.53;;;9.80;91.90;;;;;;5056281;28;20191;-87
2023/01/13 12:40:45;;;;;;;5.73;2.20;;;9.50;97.60;;;;;;5049546;28;20243;-89
2023/01/13 12:46:22;;;;;;;3.57;2.17;;;8.90;97.50;;;;;;4982223;28;20340;-89
2023/01/13 12:48:55;;;;;;;10.20;2.70;;;9.10;97.80;;;;;;5022964;28;20230;-91
2023/01/13 12:51:45;;;;;;;6.33;2.67;;;9.20;99.30;;;;;;5061988;28;20181;-88
2023/01/13 12:54:29;;;;;;;5.20;2.30;;;9.40;99.50;;;;;;5024574;28;20189;-88
2023/01/13 12:56:56;;;;;;;3.33;1.83;;;9.30;99.20;;;;;;5047481;28;20692;-89
2023/01/13 12:59:22;;;;;;;6.03;2.10;;;9.10;96.80;;;;;;5044548;28;20181;-88
2023/01/13 13:01:50;;;;;;;2.03;1.83;;;8.40;99.90;;;;;;5046915;28;20192;-88
2023/01/13 13:04:19;;;;;;;3.53;1.43;;;8.10;99.90;;;;;;5046180;28;20242;-87
2023/01/13 13:06:54;;;;;;;4.03;1.60;;;7.90;99.90;;;;;;5027764;28;20227;-88
2023/01/13 13:09:31;;;;;;;5.53;1.83;;;7.70;99.90;;;;;;5045917;28;20231;-89
2023/01/13 13:14:38;;;;;;;2.27;1.80;;;7.60;99.90;;;;;;5042275;28;20188;-89
2023/01/13 13:17:33;;;;;;;5.13;1.87;;;7.70;99.90;;;;;;5041919;28;20769;-87
2023/01/13 13:20:00;;;;;;;3.53;2.20;;;7.80;99.90;;;;;;5015722;28;20203;-89
2023/01/13 13:22:25;;;;;;;4.23;2.00;;;8.00;99.90;;;;;;5040902;28;20211;-85
2023/01/13 13:24:51;;;;;;;5.23;2.20;;;8.00;99.90;;;;;;5046568;28;20335;-88
2023/01/13 13:27:39;;;;;;;7.97;2.53;;;8.00;99.90;;;;;;5041937;28;20219;-90
2023/01/13 13:30:39;;;;;;;3.93;2.60;;;8.20;99.90;;;;;;5040018;28;20238;-89
2023/01/13 13:33:17;;;;;;;6.90;2.70;;;8.50;99.90;;;;;;5007195;28;20679;-89
2023/01/13 13:36:20;;;;;;;5.43;2.47;;;8.50;99.90;;;;;;5042207;28;20661;-89
2023/01/13 13:47:19;;;;;;;5.90;2.03;;;8.90;97.50;;;;;;5036987;28;20227;-88
2023/01/13 13:49:55;;;;;;;4.57;2.17;;;8.90;93.80;;;;;;5040565;28;20204;-87
2023/01/13 13:52:20;;;;;;;5.03;2.23;;;9.00;96.60;;;;;;5042063;28;20267;-88
2023/01/13 13:54:52;;;;;;;5.20;2.03;;;9.20;92.80;;;;;;5038593;28;20212;-88
2023/01/13 13:57:28;;;;;;;3.87;2.07;;;9.10;93.80;;;;;;5039295;28;20216;-88
2023/01/13 13:59:57;;;;;;;3.27;2.10;;;8.80;93.30;;;;;;5042998;28;20203;-88
2023/01/13 14:02:33;;;;;;;4.33;1.93;;;8.60;97.60;;;;;;5046573;28;20212;-88
2023/01/13 14:05:19;;;;;;;5.80;2.47;;;8.50;98.10;;;;;;5044650;28;20192;-91
2023/01/13 14:07:48;;;;;;;5.00;2.07;;;8.70;97.40;;;;;;5042659;28;20212;-90
2023/01/13 14:10:37;;;;;;;4.03;2.10;;;8.80;98.60;;;;;;5046431;28;20208;-89